Time;durP1;ratioP1;P1;durP2;ratioP2;P2;SDS_P1;SDS_P2;PMS_P1;PMS_P2;Temp;Humidity;BMP_temperature;BMP_pressure;BME280_temperature;BME280_humidity;BME280_pressure;Samples;Min_cycle;Max_cycle;Signal;HPM_P1;HPM_P2
2024/04/01 00:00:02;;;;;;;;;;;;;;;;;;107172;1250;62942;-78
2024/04/01 00:02:29;;;;;;;;;;;;;;;;;;106611;1253;62758;-80
2024/04/01 00:04:56;;;;;;;;;;;;;;;;;;106557;1254;62834;-80
2024/04/01 00:07:22;;;;;;;;;;;;;;;;;;106557;1250;62882;-80
2024/04/01 00:09:48;;;;;;;;;;;;;;;;;;106589;1250;63963;-78
2024/04/01 00:12:14;;;;;;;;;;;;;;;;;;106677;1254;62812;-78
2024/04/01 00:14:41;;;;;;;;;;;;;;;;;;106618;1256;62874;-78
2024/04/01 00:17:07;;;;;;;;;;;;;;;;;;106686;1250;62868;-81
2024/04/01 00:19:33;;;;;;;;;;;;;;;;;;106588;1250;63946;-80
2024/04/01 00:22:00;;;;;;;;;;;;;;;;;;107792;1249;62743;-80
2024/04/01 00:24:26;;;;;;;;;;;;;;;;;;108949;1250;62881;-79
2024/04/01 00:26:52;;;;;;;;;;;;;;;;;;107073;1256;62899;-80
2024/04/01 00:29:18;;;;;;;;;;;;;;;;;;107114;1250;62893;-78
2024/04/01 00:31:44;;;;;;;;;;;;;;;;;;106594;1254;62877;-79
2024/04/01 00:34:10;;;;;;;;;;;;;;;;;;106524;1250;62852;-78
2024/04/01 00:36:37;;;;;;;;;;;;;;;;;;106503;1250;62844;-79
2024/04/01 00:39:03;;;;;;;;;;;;;;;;;;106536;1250;62960;-80
2024/04/01 00:41:29;;;;;;;;;;;;;;;;;;106555;1250;62881;-78
2024/04/01 00:43:56;;;;;;;;;;;;;;;;;;106583;1254;63053;-79
2024/04/01 00:46:22;;;;;;;;;;;;;;;;;;106588;1250;62825;-80
2024/04/01 00:48:48;;;;;;;;;;;;;;;;;;106554;1253;62950;-78
2024/04/01 00:51:14;;;;;;;;;;;;;;;;;;106610;1251;62829;-80
2024/04/01 00:53:40;;;;;;;;;;;;;;;;;;106562;1250;62953;-77
2024/04/01 00:56:07;;;;;;;;;;;;;;;;;;106574;1254;62948;-80
2024/04/01 00:58:33;;;;;;;;;;;;;;;;;;106546;1250;62962;-82
2024/04/01 01:00:59;;;;;;;;;;;;;;;;;;107216;1254;62858;-78
2024/04/01 01:03:25;;;;;;;;;;;;;;;;;;108327;1250;61145;-78
2024/04/01 01:05:51;;;;;;;;;;;;;;;;;;106572;1254;63977;-80
2024/04/01 01:08:17;;;;;;;;;;;;;;;;;;106582;1250;62954;-79
2024/04/01 01:10:44;;;;;;;;;;;;;;;;;;106547;1253;62835;-77
2024/04/01 01:13:11;;;;;;;;;;;;;;;;;;106613;1254;64815;-80
2024/04/01 01:15:37;;;;;;;;;;;;;;;;;;107127;1256;62953;-78
2024/04/01 01:18:03;;;;;;;;;;;;;;;;;;106592;1250;63915;-79
2024/04/01 01:20:29;;;;;;;;;;;;;;;;;;106556;1250;62786;-78
2024/04/01 01:22:56;;;;;;;;;;;;;;;;;;106542;1256;61058;-80
2024/04/01 01:25:22;;;;;;;;;;;;;;;;;;107146;1250;62824;-80
2024/04/01 01:27:48;;;;;;;;;;;;;;;;;;107191;1250;62892;-80
2024/04/01 01:30:15;;;;;;;;;;;;;;;;;;106599;1251;62883;-78
2024/04/01 01:32:41;;;;;;;;;;;;;;;;;;106543;1251;63444;-79
2024/04/01 01:35:08;;;;;;;;;;;;;;;;;;106535;1250;62898;-78
2024/04/01 01:37:34;;;;;;;;;;;;;;;;;;106607;1250;62896;-80
2024/04/01 01:40:00;;;;;;;;;;;;;;;;;;106571;1250;62938;-80
2024/04/01 01:42:26;;;;;;;;;;;;;;;;;;106552;1250;62811;-78
2024/04/01 01:44:52;;;;;;;;;;;;;;;;;;106610;1250;62876;-78
2024/04/01 01:47:18;;;;;;;;;;;;;;;;;;106551;1250;62956;-80
2024/04/01 01:49:44;;;;;;;;;;;;;;;;;;107179;1250;62928;-78
2024/04/01 01:52:10;;;;;;;;;;;;;;;;;;106515;1250;62867;-80
2024/04/01 01:54:37;;;;;;;;;;;;;;;;;;106558;1253;62973;-80
2024/04/01 01:57:03;;;;;;;;;;;;;;;;;;106565;1253;62946;-78
2024/04/01 01:59:29;;;;;;;;;;;;;;;;;;106626;1253;63000;-80
2024/04/01 02:01:55;;;;;;;;;;;;;;;;;;106563;1250;62597;-78
2024/04/01 02:04:21;;;;;;;;;;;;;;;;;;106612;1250;62921;-80
2024/04/01 02:06:47;;;;;;;;;;;;;;;;;;106602;1250;62836;-78
2024/04/01 02:09:13;;;;;;;;;;;;;;;;;;106602;1250;62947;-78
2024/04/01 02:11:40;;;;;;;;;;;;;;;;;;106564;1256;62935;-80
2024/04/01 02:14:06;;;;;;;;;;;;;;;;;;106619;1251;63772;-80
2024/04/01 02:16:32;;;;;;;;;;;;;;;;;;106596;1256;62871;-81
2024/04/01 02:18:58;;;;;;;;;;;;;;;;;;107217;1250;64780;-80
2024/04/01 02:21:24;;;;;;;;;;;;;;;;;;107193;1256;62957;-78
2024/04/01 02:23:51;;;;;;;;;;;;;;;;;;106599;1250;62800;-81
2024/04/01 02:26:17;;;;;;;;;;;;;;;;;;107226;1250;62721;-82
2024/04/01 02:28:44;;;;;;;;;;;;;;;;;;107213;1250;62803;-78
2024/04/01 02:31:10;;;;;;;;;;;;;;;;;;107230;1250;62851;-81
2024/04/01 02:33:36;;;;;;;;;;;;;;;;;;107199;1250;62884;-79
2024/04/01 02:36:02;;;;;;;;;;;;;;;;;;107212;1250;62841;-80
2024/04/01 02:38:29;;;;;;;;;;;;;;;;;;107256;1251;62864;-79
2024/04/01 02:40:55;;;;;;;;;;;;;;;;;;106576;1254;62966;-78
2024/04/01 02:43:21;;;;;;;;;;;;;;;;;;106565;1250;62950;-80
2024/04/01 02:45:47;;;;;;;;;;;;;;;;;;107186;1250;62948;-81
2024/04/01 02:48:13;;;;;;;;;;;;;;;;;;107249;1250;62904;-78
2024/04/01 02:50:39;;;;;;;;;;;;;;;;;;106612;1251;62877;-78
2024/04/01 02:53:07;;;;;;;;;;;;;;;;;;108744;1250;62709;-79
2024/04/01 02:55:33;;;;;;;;;;;;;;;;;;109730;1252;60704;-79
2024/04/01 02:57:59;;;;;;;;;;;;;;;;;;109676;1250;60647;-81
2024/04/01 03:00:25;;;;;;;;;;;;;;;;;;109698;1250;60560;-79
2024/04/01 03:02:51;;;;;;;;;;;;;;;;;;109694;1250;60477;-79
2024/04/01 03:05:17;;;;;;;;;;;;;;;;;;109683;1250;60486;-81
2024/04/01 03:07:44;;;;;;;;;;;;;;;;;;108220;1254;62931;-79
2024/04/01 03:10:11;;;;;;;;;;;;;;;;;;107111;1250;62863;-80
2024/04/01 03:12:37;;;;;;;;;;;;;;;;;;107210;1252;63319;-81
2024/04/01 03:15:03;;;;;;;;;;;;;;;;;;107228;1250;62889;-78
2024/04/01 03:17:29;;;;;;;;;;;;;;;;;;107279;1254;62895;-78
2024/04/01 03:19:55;;;;;;;;;;;;;;;;;;107203;1254;63630;-81
2024/04/01 03:22:21;;;;;;;;;;;;;;;;;;107189;1253;63261;-81
2024/04/01 03:24:48;;;;;;;;;;;;;;;;;;107260;1256;62838;-79
2024/04/01 03:27:14;;;;;;;;;;;;;;;;;;107154;1255;62746;-79
2024/04/01 03:29:40;;;;;;;;;;;;;;;;;;107164;1253;63946;-80
2024/04/01 03:32:06;;;;;;;;;;;;;;;;;;107226;1251;62836;-80
2024/04/01 03:34:32;;;;;;;;;;;;;;;;;;107308;1256;62831;-81
2024/04/01 03:36:59;;;;;;;;;;;;;;;;;;107312;1251;61538;-81
2024/04/01 03:39:25;;;;;;;;;;;;;;;;;;107235;1253;63657;-81
2024/04/01 03:41:51;;;;;;;;;;;;;;;;;;107260;1251;62963;-78
2024/04/01 03:44:18;;;;;;;;;;;;;;;;;;107236;1253;62945;-81
2024/04/01 03:46:44;;;;;;;;;;;;;;;;;;107222;1251;61023;-80
2024/04/01 03:49:10;;;;;;;;;;;;;;;;;;107235;1253;63523;-82
2024/04/01 03:51:37;;;;;;;;;;;;;;;;;;107209;1254;64448;-80
2024/04/01 03:54:03;;;;;;;;;;;;;;;;;;107182;1254;60853;-78
2024/04/01 03:56:29;;;;;;;;;;;;;;;;;;107227;1254;62937;-80
2024/04/01 03:58:56;;;;;;;;;;;;;;;;;;107209;1251;62719;-80
2024/04/01 04:01:22;;;;;;;;;;;;;;;;;;107154;1254;62841;-80
2024/04/01 04:03:48;;;;;;;;;;;;;;;;;;107215;1256;62958;-81
2024/04/01 04:06:14;;;;;;;;;;;;;;;;;;107168;1251;62927;-79
2024/04/01 04:08:40;;;;;;;;;;;;;;;;;;107950;1251;62838;-79
2024/04/01 04:11:11;;;;;;;;;;;;;;;;;;109696;1251;60451;-79
2024/04/01 04:13:37;;;;;;;;;;;;;;;;;;108718;1253;64498;-81
2024/04/01 04:16:03;;;;;;;;;;;;;;;;;;107165;1256;62949;-81
2024/04/01 04:18:29;;;;;;;;;;;;;;;;;;107198;1250;62886;-81
2024/04/01 04:20:55;;;;;;;;;;;;;;;;;;107177;1251;62819;-81
2024/04/01 04:23:21;;;;;;;;;;;;;;;;;;107123;1251;62890;-81
2024/04/01 04:25:48;;;;;;;;;;;;;;;;;;107144;1251;62885;-78
2024/04/01 04:28:14;;;;;;;;;;;;;;;;;;106567;1264;62846;-80
2024/04/01 04:30:40;;;;;;;;;;;;;;;;;;107187;1256;62872;-79
2024/04/01 04:33:06;;;;;;;;;;;;;;;;;;106581;1250;62886;-81
2024/04/01 04:35:32;;;;;;;;;;;;;;;;;;106569;1254;62929;-80
2024/04/01 04:37:58;;;;;;;;;;;;;;;;;;106719;1256;62810;-79
2024/04/01 04:40:25;;;;;;;;;;;;;;;;;;106567;1255;62893;-78
2024/04/01 04:42:51;;;;;;;;;;;;;;;;;;106571;1250;62883;-79
2024/04/01 04:45:17;;;;;;;;;;;;;;;;;;106540;1254;62921;-78
2024/04/01 04:47:43;;;;;;;;;;;;;;;;;;106568;1253;62952;-81
2024/04/01 04:50:11;;;;;;;;;;;;;;;;;;107140;1253;62938;-78
2024/04/01 04:52:37;;;;;;;;;;;;;;;;;;107203;1251;63063;-79
2024/04/01 04:55:05;;;;;;;;;;;;;;;;;;106576;1254;62909;-79
2024/04/01 04:57:31;;;;;;;;;;;;;;;;;;107165;1251;62832;-80
2024/04/01 04:59:57;;;;;;;;;;;;;;;;;;107166;1251;62889;-81
2024/04/01 05:02:23;;;;;;;;;;;;;;;;;;107176;1253;62957;-79
2024/04/01 05:04:49;;;;;;;;;;;;;;;;;;107164;1253;62957;-81
2024/04/01 05:07:16;;;;;;;;;;;;;;;;;;107104;1253;62828;-80
2024/04/01 05:09:42;;;;;;;;;;;;;;;;;;107219;1253;62816;-79
2024/04/01 05:12:08;;;;;;;;;;;;;;;;;;107169;1251;62877;-82
2024/04/01 05:14:35;;;;;;;;;;;;;;;;;;107206;1249;63722;-78
2024/04/01 05:17:01;;;;;;;;;;;;;;;;;;107204;1251;62921;-80
2024/04/01 05:19:27;;;;;;;;;;;;;;;;;;107156;1253;62957;-81
2024/04/01 05:21:53;;;;;;;;;;;;;;;;;;107208;1254;62940;-80
2024/04/01 05:24:19;;;;;;;;;;;;;;;;;;107186;1256;62861;-79
2024/04/01 05:26:45;;;;;;;;;;;;;;;;;;107230;1253;62940;-81
2024/04/01 05:29:12;;;;;;;;;;;;;;;;;;107164;1251;62857;-80
2024/04/01 05:31:38;;;;;;;;;;;;;;;;;;107132;1251;62877;-78
2024/04/01 05:34:04;;;;;;;;;;;;;;;;;;107265;1251;63011;-80
2024/04/01 05:36:31;;;;;;;;;;;;;;;;;;107191;1251;62803;-80
2024/04/01 05:38:58;;;;;;;;;;;;;;;;;;107172;1251;62780;-79
2024/04/01 05:41:24;;;;;;;;;;;;;;;;;;107217;1253;62930;-78
2024/04/01 05:43:50;;;;;;;;;;;;;;;;;;107231;1251;62957;-79
2024/04/01 05:46:16;;;;;;;;;;;;;;;;;;106664;1254;62762;-81
2024/04/01 05:48:43;;;;;;;;;;;;;;;;;;107204;1251;62794;-81
2024/04/01 05:51:09;;;;;;;;;;;;;;;;;;107163;1251;62754;-81
2024/04/01 05:53:36;;;;;;;;;;;;;;;;;;107216;1251;62931;-80
2024/04/01 05:56:03;;;;;;;;;;;;;;;;;;107159;1251;62719;-81
2024/04/01 05:58:29;;;;;;;;;;;;;;;;;;107181;1251;62868;-81
2024/04/01 06:00:56;;;;;;;;;;;;;;;;;;107189;1251;62959;-78
2024/04/01 06:03:22;;;;;;;;;;;;;;;;;;107206;1250;64006;-78
2024/04/01 06:05:50;;;;;;;;;;;;;;;;;;107238;1251;62828;-80
2024/04/01 06:08:16;;;;;;;;;;;;;;;;;;107177;1253;63035;-79
2024/04/01 06:10:42;;;;;;;;;;;;;;;;;;107042;1251;188812;-80
2024/04/01 06:13:08;;;;;;;;;;;;;;;;;;107172;1250;63655;-80
2024/04/01 06:15:34;;;;;;;;;;;;;;;;;;107216;1250;63025;-78
2024/04/01 06:18:00;;;;;;;;;;;;;;;;;;107238;1253;62847;-80
2024/04/01 06:20:27;;;;;;;;;;;;;;;;;;107224;1251;62927;-79
2024/04/01 06:22:53;;;;;;;;;;;;;;;;;;106587;1251;62944;-79
2024/04/01 06:25:20;;;;;;;;;;;;;;;;;;106573;1251;62963;-81
2024/04/01 06:27:46;;;;;;;;;;;;;;;;;;107690;1250;62873;-80
2024/04/01 06:30:12;;;;;;;;;;;;;;;;;;107190;1249;62871;-78
2024/04/01 06:32:38;;;;;;;;;;;;;;;;;;107210;1251;62870;-79
2024/04/01 06:35:04;;;;;;;;;;;;;;;;;;106589;1253;62865;-78
2024/04/01 06:37:30;;;;;;;;;;;;;;;;;;106619;1254;62980;-79
2024/04/01 06:39:58;;;;;;;;;;;;;;;;;;106592;1254;62892;-78
2024/04/01 06:42:24;;;;;;;;;;;;;;;;;;106571;1254;62951;-79
2024/04/01 06:44:51;;;;;;;;;;;;;;;;;;107217;1251;62849;-80
2024/04/01 06:47:18;;;;;;;;;;;;;;;;;;107207;1251;62828;-79
2024/04/01 06:49:44;;;;;;;;;;;;;;;;;;107259;1251;62890;-79
2024/04/01 06:52:10;;;;;;;;;;;;;;;;;;107163;1251;62883;-80
2024/04/01 06:54:36;;;;;;;;;;;;;;;;;;107199;1251;62951;-80
2024/04/01 06:57:02;;;;;;;;;;;;;;;;;;107226;1251;62745;-79
2024/04/01 06:59:28;;;;;;;;;;;;;;;;;;107189;1250;62880;-79
2024/04/01 07:01:55;;;;;;;;;;;;;;;;;;107141;1251;62847;-80
2024/04/01 07:04:21;;;;;;;;;;;;;;;;;;107162;1250;62983;-81
2024/04/01 07:06:48;;;;;;;;;;;;;;;;;;107161;1252;62873;-79
2024/04/01 07:09:14;;;;;;;;;;;;;;;;;;107175;1251;62943;-81
2024/04/01 07:11:40;;;;;;;;;;;;;;;;;;107214;1251;62836;-79
2024/04/01 07:14:06;;;;;;;;;;;;;;;;;;107193;1251;62900;-79
2024/04/01 07:16:32;;;;;;;;;;;;;;;;;;107183;1251;62908;-79
2024/04/01 07:18:58;;;;;;;;;;;;;;;;;;106677;1251;62918;-80
2024/04/01 07:21:26;;;;;;;;;;;;;;;;;;107182;1251;64283;-79
2024/04/01 07:23:53;;;;;;;;;;;;;;;;;;107206;1251;62967;-79
2024/04/01 07:26:19;;;;;;;;;;;;;;;;;;106617;1254;63617;-81
2024/04/01 07:28:47;;;;;;;;;;;;;;;;;;107157;1254;62941;-80
2024/04/01 07:31:13;;;;;;;;;;;;;;;;;;107138;1251;62947;-79
2024/04/01 07:33:40;;;;;;;;;;;;;;;;;;107228;1251;62815;-79
2024/04/01 07:36:06;;;;;;;;;;;;;;;;;;107206;1251;62893;-81
2024/04/01 07:38:32;;;;;;;;;;;;;;;;;;107186;1253;62958;-79
2024/04/01 07:40:58;;;;;;;;;;;;;;;;;;107210;1251;62854;-81
2024/04/01 07:43:25;;;;;;;;;;;;;;;;;;107253;1254;62955;-79
2024/04/01 07:45:51;;;;;;;;;;;;;;;;;;107201;1251;62938;-81
2024/04/01 07:48:17;;;;;;;;;;;;;;;;;;107208;1249;63569;-79
2024/04/01 07:50:43;;;;;;;;;;;;;;;;;;107184;1251;62941;-78
2024/04/01 07:53:09;;;;;;;;;;;;;;;;;;107223;1254;62812;-81
2024/04/01 07:55:35;;;;;;;;;;;;;;;;;;107246;1253;62725;-79
2024/04/01 07:58:02;;;;;;;;;;;;;;;;;;107249;1253;62969;-80
2024/04/01 08:00:28;;;;;;;;;;;;;;;;;;107191;1251;62918;-79
2024/04/01 08:02:54;;;;;;;;;;;;;;;;;;107237;1250;62709;-79
2024/04/01 08:05:20;;;;;;;;;;;;;;;;;;107202;1251;62871;-81
2024/04/01 08:07:46;;;;;;;;;;;;;;;;;;108609;1251;63642;-81
2024/04/01 08:10:12;;;;;;;;;;;;;;;;;;109641;1250;60458;-80
2024/04/01 08:12:38;;;;;;;;;;;;;;;;;;109671;1251;60505;-82
2024/04/01 08:15:05;;;;;;;;;;;;;;;;;;109665;1250;60479;-81
2024/04/01 08:17:31;;;;;;;;;;;;;;;;;;109648;1250;60450;-80
2024/04/01 08:19:57;;;;;;;;;;;;;;;;;;109703;1249;60509;-81
2024/04/01 08:22:23;;;;;;;;;;;;;;;;;;109662;1250;60457;-81
2024/04/01 08:24:49;;;;;;;;;;;;;;;;;;109657;1250;60516;-81
2024/04/01 08:27:16;;;;;;;;;;;;;;;;;;109712;1250;60524;-80
2024/04/01 08:29:42;;;;;;;;;;;;;;;;;;109636;1250;60641;-81
2024/04/01 08:32:09;;;;;;;;;;;;;;;;;;107518;1250;62837;-79
2024/04/01 08:34:35;;;;;;;;;;;;;;;;;;107224;1250;62877;-81
2024/04/01 08:37:01;;;;;;;;;;;;;;;;;;107216;1250;62851;-80
2024/04/01 08:39:27;;;;;;;;;;;;;;;;;;107221;1254;62928;-81
2024/04/01 08:41:53;;;;;;;;;;;;;;;;;;107239;1253;62863;-80
2024/04/01 08:44:20;;;;;;;;;;;;;;;;;;107183;1250;63412;-81
2024/04/01 08:46:46;;;;;;;;;;;;;;;;;;107202;1253;62834;-81
2024/04/01 08:49:12;;;;;;;;;;;;;;;;;;107177;1251;63990;-81
2024/04/01 08:51:38;;;;;;;;;;;;;;;;;;107228;1250;62872;-80
2024/04/01 08:54:07;;;;;;;;;;;;;;;;;;107190;1250;61146;-80
2024/04/01 08:56:33;;;;;;;;;;;;;;;;;;107171;1254;62950;-81
2024/04/01 08:58:59;;;;;;;;;;;;;;;;;;107262;1250;62977;-80
2024/04/01 09:01:26;;;;;;;;;;;;;;;;;;107165;1254;62737;-81
2024/04/01 09:03:52;;;;;;;;;;;;;;;;;;107151;1250;62954;-80
2024/04/01 09:06:18;;;;;;;;;;;;;;;;;;107175;1254;63017;-82
2024/04/01 09:08:46;;;;;;;;;;;;;;;;;;107196;1249;62721;-81
2024/04/01 09:11:12;;;;;;;;;;;;;;;;;;107226;1249;62844;-79
2024/04/01 09:13:38;;;;;;;;;;;;;;;;;;107249;1250;62918;-81
2024/04/01 09:16:04;;;;;;;;;;;;;;;;;;107181;1250;63042;-83
2024/04/01 09:18:36;;;;;;;;;;;;;;;;;;107197;1250;62843;-81
2024/04/01 09:21:02;;;;;;;;;;;;;;;;;;107210;1251;62961;-81
2024/04/01 09:23:31;;;;;;;;;;;;;;;;;;107212;1254;62969;-79
2024/04/01 09:25:57;;;;;;;;;;;;;;;;;;107206;1250;62915;-81
2024/04/01 09:28:23;;;;;;;;;;;;;;;;;;107297;1249;62933;-81
2024/04/01 09:30:49;;;;;;;;;;;;;;;;;;107228;1250;62882;-81
2024/04/01 09:33:15;;;;;;;;;;;;;;;;;;109127;1249;61027;-80
2024/04/01 09:35:41;;;;;;;;;;;;;;;;;;109671;1249;60568;-82
2024/04/01 09:38:07;;;;;;;;;;;;;;;;;;109697;1249;60474;-80
2024/04/01 09:40:34;;;;;;;;;;;;;;;;;;107882;1249;62861;-81
2024/04/01 09:43:00;;;;;;;;;;;;;;;;;;107179;1250;62848;-81
2024/04/01 09:45:28;;;;;;;;;;;;;;;;;;107166;1250;63033;-79
2024/04/01 09:47:54;;;;;;;;;;;;;;;;;;107185;1254;60874;-79
2024/04/01 09:50:20;;;;;;;;;;;;;;;;;;107143;1249;62960;-80
2024/04/01 09:52:46;;;;;;;;;;;;;;;;;;107223;1250;62977;-81
2024/04/01 09:55:12;;;;;;;;;;;;;;;;;;107171;1249;62921;-82
2024/04/01 09:57:39;;;;;;;;;;;;;;;;;;107752;1249;62878;-82
2024/04/01 10:00:05;;;;;;;;;;;;;;;;;;107218;1250;62944;-79
2024/04/01 10:02:31;;;;;;;;;;;;;;;;;;107215;1253;62950;-79
2024/04/01 10:04:57;;;;;;;;;;;;;;;;;;107229;1250;62886;-80
2024/04/01 10:07:23;;;;;;;;;;;;;;;;;;107835;1249;63044;-79
2024/04/01 10:09:50;;;;;;;;;;;;;;;;;;107192;1249;62856;-80
2024/04/01 10:12:16;;;;;;;;;;;;;;;;;;107202;1250;62831;-81
2024/04/01 10:14:42;;;;;;;;;;;;;;;;;;107269;1253;62976;-81
2024/04/01 10:17:08;;;;;;;;;;;;;;;;;;107180;1250;62861;-80
2024/04/01 10:19:34;;;;;;;;;;;;;;;;;;107180;1250;62956;-79
2024/04/01 10:22:01;;;;;;;;;;;;;;;;;;107199;1250;63045;-81
2024/04/01 10:24:27;;;;;;;;;;;;;;;;;;109692;1249;60502;-80
2024/04/01 10:26:54;;;;;;;;;;;;;;;;;;109702;1249;60755;-80
2024/04/01 10:29:20;;;;;;;;;;;;;;;;;;108818;1249;60837;-80
2024/04/01 10:31:46;;;;;;;;;;;;;;;;;;107214;1254;62938;-79
2024/04/01 10:34:12;;;;;;;;;;;;;;;;;;107136;1249;62819;-81
2024/04/01 10:36:38;;;;;;;;;;;;;;;;;;107151;1249;61867;-81
2024/04/01 10:39:05;;;;;;;;;;;;;;;;;;107227;1253;63938;-82
2024/04/01 10:41:31;;;;;;;;;;;;;;;;;;107218;1249;62960;-80
2024/04/01 10:43:57;;;;;;;;;;;;;;;;;;107150;1249;62822;-81
2024/04/01 10:46:23;;;;;;;;;;;;;;;;;;107155;1251;62883;-79
2024/04/01 10:48:49;;;;;;;;;;;;;;;;;;107123;1254;62966;-79
2024/04/01 10:51:15;;;;;;;;;;;;;;;;;;107163;1250;62998;-79
2024/04/01 10:53:41;;;;;;;;;;;;;;;;;;107092;1253;62905;-79
2024/04/01 10:56:08;;;;;;;;;;;;;;;;;;107096;1250;62890;-81
2024/04/01 10:58:34;;;;;;;;;;;;;;;;;;109072;1250;60475;-80
2024/04/01 11:01:01;;;;;;;;;;;;;;;;;;109163;1250;62863;-80
2024/04/01 11:03:28;;;;;;;;;;;;;;;;;;107221;1250;61973;-80
2024/04/01 11:05:54;;;;;;;;;;;;;;;;;;107131;1251;62963;-81
2024/04/01 11:08:20;;;;;;;;;;;;;;;;;;107187;1253;62943;-80
2024/04/01 11:10:46;;;;;;;;;;;;;;;;;;107258;1249;62932;-80
2024/04/01 11:13:12;;;;;;;;;;;;;;;;;;107242;1250;62903;-80
2024/04/01 11:15:39;;;;;;;;;;;;;;;;;;107211;1250;62962;-79
2024/04/01 11:18:05;;;;;;;;;;;;;;;;;;107201;1249;60929;-81
2024/04/01 11:20:31;;;;;;;;;;;;;;;;;;107171;1254;62841;-81
2024/04/01 11:22:57;;;;;;;;;;;;;;;;;;107236;1250;62976;-79
2024/04/01 11:25:23;;;;;;;;;;;;;;;;;;107202;1250;62867;-81
2024/04/01 11:27:49;;;;;;;;;;;;;;;;;;107174;1250;63019;-80
2024/04/01 11:30:15;;;;;;;;;;;;;;;;;;107209;1249;62879;-81
2024/04/01 11:32:42;;;;;;;;;;;;;;;;;;107188;1253;62879;-80
2024/04/01 11:35:08;;;;;;;;;;;;;;;;;;107102;1250;62952;-80
2024/04/01 11:37:38;;;;;;;;;;;;;;;;;;107220;1250;62825;-80
2024/04/01 11:40:04;;;;;;;;;;;;;;;;;;107127;1250;62823;-81
2024/04/01 11:42:30;;;;;;;;;;;;;;;;;;107154;1249;62931;-80
2024/04/01 11:44:57;;;;;;;;;;;;;;;;;;107185;1250;64887;-81
2024/04/01 11:47:23;;;;;;;;;;;;;;;;;;107193;1254;62940;-81
2024/04/01 11:49:49;;;;;;;;;;;;;;;;;;107157;1251;62827;-81
2024/04/01 11:52:15;;;;;;;;;;;;;;;;;;107166;1249;65104;-80
2024/04/01 11:54:42;;;;;;;;;;;;;;;;;;107176;1253;62964;-79
2024/04/01 11:57:08;;;;;;;;;;;;;;;;;;107232;1249;62948;-80
2024/04/01 11:59:36;;;;;;;;;;;;;;;;;;107221;1250;62884;-81
2024/04/01 12:02:02;;;;;;;;;;;;;;;;;;107176;1253;62929;-81
2024/04/01 12:04:28;;;;;;;;;;;;;;;;;;107237;1250;63305;-81
2024/04/01 12:06:54;;;;;;;;;;;;;;;;;;107132;1253;62950;-81
2024/04/01 12:09:20;;;;;;;;;;;;;;;;;;107125;1251;62862;-81
2024/04/01 12:11:47;;;;;;;;;;;;;;;;;;107167;1249;62874;-79
2024/04/01 12:14:13;;;;;;;;;;;;;;;;;;107197;1250;62932;-79
2024/04/01 12:16:40;;;;;;;;;;;;;;;;;;107140;1250;62963;-80
2024/04/01 12:19:06;;;;;;;;;;;;;;;;;;107154;1251;62946;-81
2024/04/01 12:21:32;;;;;;;;;;;;;;;;;;107117;1254;62876;-80
2024/04/01 12:23:58;;;;;;;;;;;;;;;;;;109084;1249;62844;-80
2024/04/01 12:26:25;;;;;;;;;;;;;;;;;;109647;1249;60418;-80
2024/04/01 12:28:51;;;;;;;;;;;;;;;;;;109623;1249;60756;-80
2024/04/01 12:31:17;;;;;;;;;;;;;;;;;;109663;1249;60720;-80
2024/04/01 12:33:43;;;;;;;;;;;;;;;;;;109689;1249;60502;-80
2024/04/01 12:36:10;;;;;;;;;;;;;;;;;;109643;1249;60644;-79
2024/04/01 12:38:36;;;;;;;;;;;;;;;;;;107532;1250;62844;-80
2024/04/01 12:41:02;;;;;;;;;;;;;;;;;;107165;1250;62871;-81
2024/04/01 12:43:29;;;;;;;;;;;;;;;;;;107196;1250;62920;-79
2024/04/01 12:45:55;;;;;;;;;;;;;;;;;;107186;1250;62985;-79
2024/04/01 12:48:21;;;;;;;;;;;;;;;;;;107142;1253;62868;-81
2024/04/01 12:50:48;;;;;;;;;;;;;;;;;;107239;1249;62883;-79
2024/04/01 12:53:14;;;;;;;;;;;;;;;;;;107175;1250;63050;-79
2024/04/01 12:55:40;;;;;;;;;;;;;;;;;;107205;1250;62777;-81
2024/04/01 12:58:06;;;;;;;;;;;;;;;;;;107220;1250;62854;-79
2024/04/01 13:00:32;;;;;;;;;;;;;;;;;;107189;1251;62930;-81
2024/04/01 13:02:58;;;;;;;;;;;;;;;;;;107166;1250;63659;-81
2024/04/01 13:05:25;;;;;;;;;;;;;;;;;;107200;1249;62986;-81
2024/04/01 13:07:51;;;;;;;;;;;;;;;;;;107291;1251;62941;-79
2024/04/01 13:10:17;;;;;;;;;;;;;;;;;;107242;1249;62899;-81
2024/04/01 13:12:43;;;;;;;;;;;;;;;;;;107208;1250;62030;-79
2024/04/01 13:15:09;;;;;;;;;;;;;;;;;;107199;1249;62855;-81
2024/04/01 13:17:36;;;;;;;;;;;;;;;;;;107250;1250;62889;-80
2024/04/01 13:20:02;;;;;;;;;;;;;;;;;;107248;1250;62913;-82
2024/04/01 13:22:29;;;;;;;;;;;;;;;;;;107220;1253;62909;-83
2024/04/01 13:24:57;;;;;;;;;;;;;;;;;;107179;1250;62836;-80
2024/04/01 13:27:23;;;;;;;;;;;;;;;;;;107187;1250;63334;-82
2024/04/01 13:29:49;;;;;;;;;;;;;;;;;;107135;1250;62889;-81
2024/04/01 13:32:15;;;;;;;;;;;;;;;;;;107199;1253;63004;-81
2024/04/01 13:34:41;;;;;;;;;;;;;;;;;;107218;1253;61028;-80
2024/04/01 13:37:08;;;;;;;;;;;;;;;;;;107264;1253;64019;-80
2024/04/01 13:39:34;;;;;;;;;;;;;;;;;;107296;1251;62968;-80
2024/04/01 13:42:00;;;;;;;;;;;;;;;;;;107270;1253;62888;-81
2024/04/01 13:44:27;;;;;;;;;;;;;;;;;;107155;1250;62888;-80
2024/04/01 13:46:53;;;;;;;;;;;;;;;;;;107151;1253;63135;-81
2024/04/01 13:49:20;;;;;;;;;;;;;;;;;;107207;1249;62886;-82
2024/04/01 13:51:46;;;;;;;;;;;;;;;;;;107713;1250;62794;-82
2024/04/01 13:54:12;;;;;;;;;;;;;;;;;;108043;1249;62896;-80
2024/04/01 13:56:38;;;;;;;;;;;;;;;;;;107760;1249;60865;-80
2024/04/01 13:59:07;;;;;;;;;;;;;;;;;;108200;1250;62871;-80
2024/04/01 14:01:34;;;;;;;;;;;;;;;;;;107239;1250;62937;-80
2024/04/01 14:04:00;;;;;;;;;;;;;;;;;;107184;1254;63005;-82
2024/04/01 14:06:26;;;;;;;;;;;;;;;;;;107154;1250;62933;-82
2024/04/01 14:08:52;;;;;;;;;;;;;;;;;;107186;1250;62889;-82
2024/04/01 14:11:19;;;;;;;;;;;;;;;;;;107223;1253;62849;-82
2024/04/01 14:13:45;;;;;;;;;;;;;;;;;;107209;1250;62865;-82
2024/04/01 14:16:11;;;;;;;;;;;;;;;;;;107176;1253;62989;-80
2024/04/01 14:18:37;;;;;;;;;;;;;;;;;;107286;1249;62956;-80
2024/04/01 14:21:04;;;;;;;;;;;;;;;;;;107228;1253;62829;-81
2024/04/01 14:23:30;;;;;;;;;;;;;;;;;;107171;1249;62835;-80
2024/04/01 14:25:56;;;;;;;;;;;;;;;;;;107222;1249;63539;-80
2024/04/01 14:28:22;;;;;;;;;;;;;;;;;;107255;1249;62846;-80
2024/04/01 14:30:48;;;;;;;;;;;;;;;;;;107249;1253;60781;-81
2024/04/01 14:33:15;;;;;;;;;;;;;;;;;;107159;1250;62784;-81
2024/04/01 14:35:41;;;;;;;;;;;;;;;;;;107285;1250;62957;-79
2024/04/01 14:38:13;;;;;;;;;;;;;;;;;;107147;1250;62854;-80
2024/04/01 14:40:39;;;;;;;;;;;;;;;;;;107257;1253;62851;-81
2024/04/01 14:43:05;;;;;;;;;;;;;;;;;;107177;1250;62932;-80
2024/04/01 14:45:31;;;;;;;;;;;;;;;;;;107221;1250;62819;-81
2024/04/01 14:47:57;;;;;;;;;;;;;;;;;;107177;1250;62930;-81
2024/04/01 14:50:24;;;;;;;;;;;;;;;;;;107134;1250;62979;-81
2024/04/01 14:52:50;;;;;;;;;;;;;;;;;;107182;1250;62962;-80
2024/04/01 14:55:16;;;;;;;;;;;;;;;;;;107115;1250;62874;-79
2024/04/01 14:57:42;;;;;;;;;;;;;;;;;;107212;1254;63006;-81
2024/04/01 15:00:08;;;;;;;;;;;;;;;;;;107206;1254;62985;-80
2024/04/01 15:02:35;;;;;;;;;;;;;;;;;;107179;1250;63864;-81
2024/04/01 15:05:03;;;;;;;;;;;;;;;;;;107223;1250;62998;-79
2024/04/01 15:07:30;;;;;;;;;;;;;;;;;;107138;1250;62903;-81
2024/04/01 15:09:56;;;;;;;;;;;;;;;;;;107258;1250;62960;-80
2024/04/01 15:12:22;;;;;;;;;;;;;;;;;;107195;1249;62176;-81
2024/04/01 15:14:48;;;;;;;;;;;;;;;;;;107138;1253;62826;-81
2024/04/01 15:17:14;;;;;;;;;;;;;;;;;;107286;1254;62833;-80
2024/04/01 15:19:41;;;;;;;;;;;;;;;;;;107193;1254;62906;-79
2024/04/01 15:22:07;;;;;;;;;;;;;;;;;;107126;1250;62402;-81
2024/04/01 15:24:33;;;;;;;;;;;;;;;;;;107153;1250;63885;-80
2024/04/01 15:27:03;;;;;;;;;;;;;;;;;;107229;1251;62940;-81
2024/04/01 15:29:29;;;;;;;;;;;;;;;;;;107255;1250;62923;-79
2024/04/01 15:31:56;;;;;;;;;;;;;;;;;;107158;1250;62937;-81
2024/04/01 15:34:23;;;;;;;;;;;;;;;;;;107187;1250;62877;-79
2024/04/01 15:36:49;;;;;;;;;;;;;;;;;;107206;1251;62954;-79
2024/04/01 15:39:15;;;;;;;;;;;;;;;;;;107256;1253;62847;-81
2024/04/01 15:41:41;;;;;;;;;;;;;;;;;;107238;1253;62878;-81
2024/04/01 15:44:08;;;;;;;;;;;;;;;;;;107230;1250;63930;-81
2024/04/01 15:46:34;;;;;;;;;;;;;;;;;;107155;1251;63348;-79
2024/04/01 15:49:00;;;;;;;;;;;;;;;;;;107228;1254;65070;-80
2024/04/01 15:51:26;;;;;;;;;;;;;;;;;;107118;1250;62939;-81
2024/04/01 15:53:52;;;;;;;;;;;;;;;;;;107164;1250;62955;-79
2024/04/01 15:56:21;;;;;;;;;;;;;;;;;;107197;1252;62828;-79
2024/04/01 15:58:47;;;;;;;;;;;;;;;;;;107180;1250;62748;-79
2024/04/01 16:01:13;;;;;;;;;;;;;;;;;;107181;1253;62852;-81
2024/04/01 16:03:39;;;;;;;;;;;;;;;;;;107173;1250;62866;-79
2024/04/01 16:06:06;;;;;;;;;;;;;;;;;;107142;1250;62992;-81
2024/04/01 16:08:32;;;;;;;;;;;;;;;;;;107209;1254;62875;-79
2024/04/01 16:11:00;;;;;;;;;;;;;;;;;;107162;1253;62931;-81
2024/04/01 16:13:26;;;;;;;;;;;;;;;;;;107247;1254;62940;-79
2024/04/01 16:15:52;;;;;;;;;;;;;;;;;;107177;1250;63039;-81
2024/04/01 16:18:19;;;;;;;;;;;;;;;;;;107289;1250;62948;-81
2024/04/01 16:20:45;;;;;;;;;;;;;;;;;;107210;1253;62890;-81